Warrensville, NC (28693)

9:17 PM EDT on October 16, 2019 (GMT -0400)
Bina, NC | | Change Station
Active Advisory: Wind Advisory

Elev 2700 ft 36.49 °N, 81.50 °W | Updated 19 seconds ago

Partly Cloudy
Partly Cloudy
47.1 °F
Feels Like 42 °F
N
10.29
Wind Variable Wind from SE
Gusts 12.5 mph

Today
High -- | Low -- °F
--% Chance of Precip.
Yesterday
High -- | Low -- °F
Precip. -- in
Pressure 29.83 in
Visibility 10.0 miles
Clouds Clear
Windchill 42 °F
Dew Point 37 °F
Humidity 67%
Rainfall 0.73 in
Snow Depth Not available.
7:33 AM 6:48 PM
Waning Gibbous, 91% visible
METAR KGEV 170115Z AUTO 29021G36KT 10SM CLR 07/01 A2983 RMK AO2 T00660007
Pressure 29.83 in
Visibility 10.0 miles
Clouds Clear
Windchill 42 °F
Dew Point 37 °F
Humidity 67%
Rainfall 0.73 in
Snow Depth Not available.
7:33 AM 6:48 PM
Waning Gibbous, 91% visible
METAR KGEV 170115Z AUTO 29021G36KT 10SM CLR 07/01 A2983 RMK AO2 T00660007

Get Your Daily Forecast Email!

Thanks for signing up!

Be on the lookout for a verification email in your inbox.

You'll start receiving severe weather alerts in your inbox..

×

10-Day Weather Forecast

Almanac

Astronomy

Oct. 16, 2019 Rise Set
Actual Time
Civil Twilight
Nautical Twilight
Astronomical Twilight
Moon
Length of Visible Light
Length of Day
Tomorrow will be .
, % of the Moon is Illuminated

Today's Extremes

State Highs State Lows

Community

WunderPhotos

Category 6

Welcome to Category 6. This is the collective home for Weather Underground's featured writeups by Dr. Jeff Masters (right), Bob Henson (left), Chris Burt, and other regular contributors.

Nearby

Air Quality

  Air Quality AQ Index Pollutant
Not available.

Snow Depth

Station Depth Elevation

Earthquake Activity

City Distance Mag. Time & Date
Minimum magnitude displayed is 2.5.

Coastal Water Temperatures

Place Temperature

Stations

Nearby Weather Stations

Station Location Temp. Windchill Dew Point Humidity Wind Precip. Elev Updated Type
                   

Watches & Warnings

Wind Advisory
Issued: 8:40 PM EDT Oct. 16, 2019 – National Weather Service

... Wind Advisory remains in effect until 11 am EDT Thursday...

* what... northwest winds 15 to 25 mph with gusts up to 50 mph
expected.

* Where... along and west of the crest of the Blue Ridge in
southwest Virginia, northwest North Carolina and southeast
West Virginia.

* When... from 5 PM today to 11 am EDT Thursday.

* Impacts... gusty winds will blow around unsecured objects,
including any remaining summertime items such as patio
furniture. Tree limbs could be blown down and a few power
outages may result. Isolated trees may be uprooted due to
recent rainfall as well.

* Additional details... high profile vehicles will be susceptible
to the winds, especially vehicles traveling along southwest to
northeast oriented sections of roadway.

Precautionary/preparedness actions...

Use extra caution when driving, especially if operating a high
profile vehicle. Secure outdoor objects.